Time;durP1;ratioP1;P1;durP2;ratioP2;P2;SDS_P1;SDS_P2;PMS_P1;PMS_P2;Temp;Humidity;BMP_temperature;BMP_pressure;BME280_temperature;BME280_humidity;BME280_pressure;Samples;Min_cycle;Max_cycle;Signal;HPM_P1;HPM_P2
2021/03/28 00:02:19;;;;;;;29.50;3.63;;;;;;;2.61;95.30;102402.00;6247604;28;20067;-76
2021/03/28 00:05:28;;;;;;;29.10;4.65;;;;;;;2.54;95.60;102403.72;6247517;28;20054;-77
2021/03/28 00:08:29;;;;;;;19.30;3.42;;;;;;;2.48;96.00;102400.19;6247780;28;20049;-77
2021/03/28 00:11:32;;;;;;;27.33;3.90;;;;;;;2.50;96.59;102408.88;6247202;28;20057;-77
2021/03/28 00:14:41;;;;;;;23.00;3.80;;;;;;;2.44;96.73;102404.47;6247463;28;20403;-77
2021/03/28 00:17:46;;;;;;;17.88;3.40;;;;;;;2.39;97.27;102389.75;6245536;28;20103;-77
2021/03/28 00:20:50;;;;;;;19.35;3.65;;;;;;;2.38;96.66;102395.81;6246485;28;20050;-77
2021/03/28 00:23:54;;;;;;;18.48;5.10;;;;;;;2.47;96.17;102395.84;6245348;28;20053;-77
2021/03/28 00:27:07;;;;;;;17.60;4.15;;;;;;;2.46;95.78;102396.72;6246872;28;20493;-76
2021/03/28 00:30:25;;;;;;;18.48;4.65;;;;;;;2.37;96.72;102394.94;6247111;28;20057;-76
2021/03/28 00:33:27;;;;;;;24.05;4.78;;;;;;;2.33;97.33;102393.16;6247083;28;20059;-76
2021/03/28 00:36:35;;;;;;;16.48;3.33;;;;;;;2.32;97.56;102400.91;6246919;28;20045;-77
2021/03/28 00:39:42;;;;;;;23.30;4.65;;;;;;;2.28;97.32;102397.47;6247037;28;20100;-76
2021/03/28 00:42:46;;;;;;;19.17;4.05;;;;;;;2.27;97.72;102395.69;6246545;28;20057;-77
2021/03/28 00:45:56;;;;;;;18.35;3.80;;;;;;;2.28;97.53;102395.72;6247031;28;20057;-77
2021/03/28 00:48:59;;;;;;;15.52;4.22;;;;;;;2.28;97.08;102393.13;6246588;28;20053;-77
2021/03/28 00:52:05;;;;;;;13.63;3.28;;;;;;;2.28;96.61;102390.53;6246620;28;20072;-77
2021/03/28 00:55:15;;;;;;;19.70;4.70;;;;;;;2.24;97.44;102385.31;6246917;28;20068;-77
2021/03/28 00:58:20;;;;;;;21.55;4.05;;;;;;;2.27;98.26;102385.31;6246595;28;20045;-77
2021/03/28 01:01:28;;;;;;;23.25;6.03;;;;;;;2.27;98.36;102386.22;6246519;28;20045;-76
2021/03/28 01:04:40;;;;;;;24.60;4.57;;;;;;;2.32;98.20;102394.03;6246585;28;20514;-76
2021/03/28 01:07:47;;;;;;;16.85;4.30;;;;;;;2.31;98.21;102389.69;6246510;28;20052;-76
2021/03/28 01:11:13;;;;;;;21.08;4.32;;;;;;;2.32;97.38;102382.75;6246309;28;20068;-76
2021/03/28 01:14:22;;;;;;;21.35;4.50;;;;;;;2.31;97.91;102375.84;6246342;28;20095;-76
2021/03/28 01:17:42;;;;;;;16.15;3.60;;;;;;;2.32;97.15;102375.88;6246580;28;20041;-76
2021/03/28 01:20:59;;;;;;;17.08;4.05;;;;;;;2.27;97.81;102367.16;6246137;28;20502;-77
2021/03/28 01:24:10;;;;;;;16.83;4.10;;;;;;;2.31;97.82;102375.84;6246475;28;20060;-76
2021/03/28 01:27:19;;;;;;;14.23;4.18;;;;;;;2.32;98.92;102378.47;6246604;28;20049;-76
2021/03/28 01:30:23;;;;;;;15.98;4.28;;;;;;;2.35;98.63;102375.88;6246315;28;20053;-76
2021/03/28 01:33:31;;;;;;;17.60;4.38;;;;;;;2.39;98.47;102374.19;6246335;28;20079;-76
2021/03/28 01:36:38;;;;;;;26.70;4.93;;;;;;;2.45;96.80;102377.69;6246177;28;20136;-76
2021/03/28 01:39:47;;;;;;;24.45;4.22;;;;;;;2.45;95.56;102375.09;6249314;28;20049;-77
2021/03/28 01:43:14;;;;;;;22.17;4.35;;;;;;;2.43;95.48;102363.84;6250761;28;20049;-76
2021/03/28 01:46:25;;;;;;;17.13;4.60;;;;;;;2.44;96.03;102356.91;6248694;28;20058;-77
2021/03/28 01:49:42;;;;;;;15.60;4.07;;;;;;;2.48;95.36;102361.25;6250655;28;20052;-76
2021/03/28 01:52:54;;;;;;;16.52;3.78;;;;;;;2.50;95.12;102362.16;6250646;28;20045;-76
2021/03/28 01:56:00;;;;;;;21.65;4.57;;;;;;;2.49;94.38;102350.03;6250720;28;20045;-76
2021/03/28 01:59:19;;;;;;;19.88;4.30;;;;;;;2.46;94.71;102348.28;6250437;28;20045;-77
2021/03/28 02:02:38;;;;;;;17.03;4.40;;;;;;;2.45;95.07;102350.84;6250456;28;20494;-77
2021/03/28 02:06:02;;;;;;;16.83;4.25;;;;;;;2.47;94.44;102349.16;6250417;28;20052;-76
2021/03/28 02:09:09;;;;;;;22.73;4.40;;;;;;;2.48;93.92;102337.91;6250450;28;20048;-76
2021/03/28 02:12:15;;;;;;;28.00;4.28;;;;;;;2.49;94.12;102343.09;6250093;28;20057;-77
2021/03/28 02:15:30;;;;;;;29.08;4.88;;;;;;;2.48;94.97;102340.50;6250430;28;20493;-76
2021/03/28 02:18:57;;;;;;;18.17;5.18;;;;;;;2.50;95.66;102344.00;6250062;28;20045;-77
2021/03/28 02:22:10;;;;;;;20.42;4.50;;;;;;;2.54;94.71;102348.31;6249958;28;20049;-76
2021/03/28 02:25:17;;;;;;;20.95;4.70;;;;;;;2.61;94.23;102344.03;6249956;28;20053;-77
2021/03/28 02:28:32;;;;;;;23.13;5.15;;;;;;;2.60;93.75;102348.38;6249991;28;20049;-76
2021/03/28 02:31:45;;;;;;;21.40;6.32;;;;;;;2.71;91.91;102344.09;6249587;28;20413;-76
2021/03/28 02:34:59;;;;;;;22.33;3.83;;;;;;;2.74;91.23;102346.72;6249882;28;20053;-76
2021/03/28 02:38:11;;;;;;;18.73;4.60;;;;;;;2.79;91.96;102351.91;6249765;28;20056;-76
2021/03/28 02:41:19;;;;;;;18.77;4.20;;;;;;;2.81;91.61;102347.59;6249513;28;20108;-76
2021/03/28 02:44:35;;;;;;;18.33;4.40;;;;;;;2.78;91.23;102340.66;6249751;28;20052;-76
2021/03/28 02:48:04;;;;;;;22.35;4.78;;;;;;;2.77;92.42;102343.25;6249350;28;20172;-76
2021/03/28 02:51:16;;;;;;;;;;;;;;;2.75;92.31;102344.97;6249059;28;20051;-76
2021/03/28 02:55:03;;;;;;;28.95;3.72;;;;;;;2.86;92.48;102345.00;6249304;28;19932;-76
2021/03/28 02:58:27;;;;;;;18.42;3.95;;;;;;;2.86;91.47;102338.13;6221090;28;20072;-76
2021/03/28 03:01:46;;;;;;;15.88;4.18;;;;;;;2.88;90.85;102345.91;6249133;28;20060;-76
2021/03/28 03:05:08;;;;;;;22.53;5.70;;;;;;;2.97;91.15;102345.94;6249225;28;20068;-76
2021/03/28 03:08:13;;;;;;;20.50;3.83;;;;;;;2.93;90.01;102339.88;6249044;28;20560;-76
2021/03/28 03:11:44;;;;;;;18.08;3.88;;;;;;;2.90;90.69;102337.25;6248907;28;20049;-76
2021/03/28 03:15:06;;;;;;;18.38;3.83;;;;;;;2.90;90.41;102336.38;6247909;28;20057;-76
2021/03/28 03:18:53;;;;;;;23.65;4.20;;;;;;;2.89;89.75;102338.09;6248584;28;20143;-77
2021/03/28 03:22:28;;;;;;;14.27;3.58;;;;;;;2.92;90.20;102337.28;6248507;28;20045;-77
2021/03/28 03:26:07;;;;;;;15.73;3.53;;;;;;;2.88;89.97;102332.94;6248618;28;20099;-77
2021/03/28 03:29:36;;;;;;;9.87;3.13;;;;;;;2.84;89.95;102336.38;6248536;28;20049;-76
2021/03/28 03:32:56;;;;;;;13.63;3.53;;;;;;;2.82;89.34;102332.88;6248207;28;20371;-77
2021/03/28 03:36:18;;;;;;;21.35;4.63;;;;;;;2.85;89.37;102331.16;6248391;28;20057;-77
2021/03/28 03:39:37;;;;;;;20.33;4.10;;;;;;;2.81;89.83;102329.41;6248121;28;20050;-76
2021/03/28 03:42:56;;;;;;;14.80;3.47;;;;;;;2.80;90.55;102343.25;6248446;28;20068;-77
2021/03/28 03:46:04;;;;;;;15.68;3.40;;;;;;;2.82;91.14;102340.66;6248117;28;20045;-77
2021/03/28 03:49:27;;;;;;;15.55;3.80;;;;;;;2.85;88.94;102335.50;6248077;28;20068;-76
2021/03/28 03:52:44;;;;;;;14.00;3.40;;;;;;;2.92;88.73;102338.13;6247731;28;20068;-76
2021/03/28 03:56:00;;;;;;;19.25;4.47;;;;;;;2.93;88.71;102336.41;6247815;28;20083;-77
2021/03/28 03:59:13;;;;;;;18.38;3.28;;;;;;;2.99;88.25;102339.88;6247359;28;20045;-76
2021/03/28 04:02:27;;;;;;;25.00;3.30;;;;;;;2.98;88.37;102348.53;6246754;28;20061;-77
2021/03/28 04:05:56;;;;;;;16.05;3.42;;;;;;;3.08;87.93;102340.78;6247816;28;20053;-76
2021/03/28 04:09:08;;;;;;;23.55;5.18;;;;;;;3.09;88.73;102333.00;6233958;28;20049;-76
2021/03/28 04:12:35;;;;;;;14.38;3.30;;;;;;;3.08;87.45;102340.78;6247287;28;20085;-77
2021/03/28 04:15:44;;;;;;;13.52;3.72;;;;;;;3.10;88.31;102336.47;6247236;28;20050;-76
2021/03/28 04:18:57;;;;;;;;;;;;;;;3.15;88.18;102329.56;6247793;28;20050;-77
2021/03/28 04:22:17;;;;;;;13.25;3.00;;;;;;;3.14;88.44;102320.91;6247021;28;20298;-76
2021/03/28 04:25:32;;;;;;;14.85;3.35;;;;;;;3.20;88.61;102325.25;6247223;28;20430;-76
2021/03/28 04:28:50;;;;;;;12.65;3.35;;;;;;;3.16;87.53;102319.16;6246492;28;20491;-76
2021/03/28 04:32:39;;;;;;;15.02;3.35;;;;;;;3.24;86.51;102314.00;6246710;28;20049;-76
2021/03/28 04:36:05;;;;;;;15.95;3.25;;;;;;;3.24;86.72;102327.84;6147400;29;20090;-77
2021/03/28 04:39:20;;;;;;;21.88;3.15;;;;;;;3.28;87.53;102323.53;6237717;28;20049;-76
2021/03/28 04:42:44;;;;;;;15.68;3.17;;;;;;;3.34;86.98;102326.13;6246716;28;20478;-77
2021/03/28 04:46:23;;;;;;;18.20;2.78;;;;;;;3.29;87.81;102318.31;6246963;28;20045;-76
2021/03/28 04:49:45;;;;;;;14.40;3.43;;;;;;;3.29;87.98;102318.31;6247028;28;20057;-76
2021/03/28 04:53:22;;;;;;;13.15;2.95;;;;;;;3.35;86.80;102314.88;6246588;28;20049;-76
2021/03/28 04:56:57;;;;;;;13.80;2.90;;;;;;;3.24;87.79;102312.25;6246774;28;20457;-76
2021/03/28 05:00:16;;;;;;;17.02;3.80;;;;;;;3.39;86.70;102311.41;6246475;28;20053;-76
2021/03/28 05:03:54;;;;;;;17.00;2.67;;;;;;;3.36;87.06;102315.72;6246416;28;20510;-77
2021/03/28 05:07:27;;;;;;;11.38;2.50;;;;;;;3.38;87.20;102309.69;6246576;28;20183;-76
2021/03/28 05:10:45;;;;;;;15.10;3.33;;;;;;;3.33;88.04;102311.41;6246647;28;20498;-77
2021/03/28 05:14:29;;;;;;;10.23;3.10;;;;;;;3.39;87.16;102310.53;6249562;28;20524;-76
2021/03/28 05:18:07;;;;;;;16.80;3.55;;;;;;;3.37;87.23;102307.97;6251341;28;20054;-77
2021/03/28 05:21:49;;;;;;;13.05;2.63;;;;;;;3.42;87.16;102315.75;6251269;28;20096;-77
2021/03/28 05:25:06;;;;;;;14.23;3.30;;;;;;;3.44;87.54;102320.06;6251691;28;20053;-76
2021/03/28 05:28:44;;;;;;;14.23;3.97;;;;;;;3.41;87.52;102314.03;6251041;28;20053;-73
2021/03/28 05:32:22;;;;;;;27.92;6.80;;;;;;;3.50;87.01;102304.50;6250431;28;20046;-77
2021/03/28 05:35:40;;;;;;;24.48;3.17;;;;;;;3.47;86.80;102303.63;6251250;28;20498;-77
2021/03/28 05:39:11;;;;;;;16.65;4.55;;;;;;;3.51;87.63;102307.97;6250935;28;20042;-77
2021/03/28 05:42:28;;;;;;;16.63;3.75;;;;;;;3.52;87.31;102302.75;6237375;28;20524;-76
2021/03/28 05:45:52;;;;;;;15.60;3.45;;;;;;;3.52;88.32;102312.31;6250817;28;20537;-77
2021/03/28 05:49:19;;;;;;;13.65;4.47;;;;;;;3.52;89.36;102312.31;6250694;28;20490;-76
2021/03/28 05:52:59;;;;;;;20.77;3.80;;;;;;;3.51;88.86;102303.63;6250627;28;20465;-77
2021/03/28 05:57:06;;;;;;;13.85;3.33;;;;;;;3.61;88.08;102311.44;6250891;28;20049;-76
2021/03/28 06:00:28;;;;;;;17.95;3.88;;;;;;;3.72;88.29;102304.50;6250846;28;20056;-77
2021/03/28 06:04:27;;;;;;;17.17;4.25;;;;;;;3.76;88.29;102317.50;6250437;28;20132;-79
2021/03/28 06:08:16;;;;;;;18.58;3.83;;;;;;;3.77;88.41;102319.25;6250280;28;20414;-76
2021/03/28 06:12:08;;;;;;;17.10;3.45;;;;;;;3.91;87.94;102327.06;6217348;28;20057;-77
2021/03/28 06:15:44;;;;;;;22.15;4.25;;;;;;;4.18;86.81;102322.66;6250415;28;20049;-76
2021/03/28 06:19:11;;;;;;;27.45;6.28;;;;;;;4.17;86.96;102318.34;6248995;28;20056;-76
2021/03/28 06:22:39;;;;;;;19.88;4.40;;;;;;;4.23;86.30;102315.75;6249579;28;20524;-76
2021/03/28 06:26:17;;;;;;;16.85;3.85;;;;;;;4.28;86.19;102314.00;6249312;28;20045;-76
2021/03/28 06:29:55;;;;;;;18.02;3.45;;;;;;;4.29;87.04;102315.72;6249658;28;20057;-76
2021/03/28 06:33:36;;;;;;;18.67;4.53;;;;;;;4.37;86.50;102311.38;6249620;28;20509;-76
2021/03/28 06:37:03;;;;;;;23.17;4.50;;;;;;;4.43;87.09;102319.16;6249893;28;20058;-76
2021/03/28 06:40:27;;;;;;;18.08;3.75;;;;;;;4.53;86.70;102307.84;6249880;28;20050;-76
2021/03/28 06:43:55;;;;;;;18.67;3.33;;;;;;;4.71;85.97;102313.88;6249729;28;20053;-77
2021/03/28 06:47:20;;;;;;;16.38;4.05;;;;;;;4.70;86.61;102310.41;6249639;28;20053;-77
2021/03/28 06:50:47;;;;;;;18.88;3.63;;;;;;;4.96;85.34;102299.00;6249462;28;20453;-76
2021/03/28 06:54:17;;;;;;;14.98;3.75;;;;;;;5.01;84.50;102313.72;6249320;28;20524;-76
2021/03/28 06:57:44;;;;;;;21.08;3.88;;;;;;;5.11;85.16;102317.16;6249154;28;20049;-76
2021/03/28 07:01:22;;;;;;;10.10;3.70;;;;;;;5.26;84.32;102314.44;6235562;28;20701;-77
2021/03/28 07:04:47;;;;;;;14.93;3.78;;;;;;;5.29;84.41;102317.03;6249489;28;20085;-74
2021/03/28 07:08:14;;;;;;;14.30;3.25;;;;;;;5.39;84.56;102311.78;6249078;28;20052;-76
2021/03/28 07:11:28;;;;;;;18.45;6.28;;;;;;;5.42;83.32;102304.81;6248984;28;20050;-77
2021/03/28 07:15:11;;;;;;;17.63;3.97;;;;;;;5.76;83.23;102307.16;6248937;28;20494;-77
2021/03/28 07:18:44;;;;;;;20.45;4.15;;;;;;;5.84;83.03;102307.94;6249071;28;20041;-77
2021/03/28 07:21:59;;;;;;;12.02;3.55;;;;;;;5.88;82.49;102314.88;6248927;28;20056;-78
2021/03/28 07:25:38;;;;;;;17.25;3.45;;;;;;;5.89;83.36;102315.75;6248699;28;20056;-78
2021/03/28 07:29:20;;;;;;;21.47;3.87;;;;;;;5.98;82.49;102311.34;6248822;28;20041;-77
2021/03/28 07:32:59;;;;;;;12.10;3.50;;;;;;;5.98;83.36;102306.13;6248694;28;20050;-78
2021/03/28 07:36:48;;;;;;;11.85;3.55;;;;;;;5.98;83.27;102310.47;6221967;28;20056;-77
2021/03/28 07:40:33;;;;;;;23.55;5.57;;;;;;;6.24;81.51;102300.66;6248093;28;20048;-77
2021/03/28 07:44:14;;;;;;;14.63;3.17;;;;;;;6.30;83.22;102316.22;6227809;28;20122;-77
2021/03/28 07:47:45;;;;;;;15.60;4.35;;;;;;;6.50;81.61;102308.22;6248167;28;20060;-74
2021/03/28 07:51:21;;;;;;;24.38;3.72;;;;;;;6.59;82.51;102307.25;6248198;28;20149;-76
2021/03/28 07:54:57;;;;;;;16.15;3.92;;;;;;;6.88;82.26;102293.81;6248214;28;20107;-77
2021/03/28 07:58:25;;;;;;;24.33;5.40;;;;;;;7.03;80.29;102298.81;6246848;28;20057;-76
2021/03/28 08:01:44;;;;;;;22.67;3.97;;;;;;;6.96;81.01;102294.56;6246756;28;20501;-76
2021/03/28 08:05:36;;;;;;;19.63;4.18;;;;;;;6.96;80.81;102298.94;6247080;28;20049;-76
2021/03/28 08:08:51;;;;;;;18.52;3.45;;;;;;;7.17;80.22;102303.00;6233630;28;20057;-76
2021/03/28 08:12:06;;;;;;;16.13;3.78;;;;;;;7.16;80.13;102299.50;6246032;28;20107;-76
2021/03/28 08:15:27;;;;;;;18.05;3.65;;;;;;;7.33;78.63;102305.38;6244582;28;20061;-74
2021/03/28 08:18:34;;;;;;;11.70;3.15;;;;;;;7.33;79.84;102301.91;6244936;28;20081;-74
2021/03/28 08:21:44;;;;;;;14.55;4.00;;;;;;;7.35;79.30;102310.56;6246258;28;20045;-73
2021/03/28 08:25:21;;;;;;;17.50;3.90;;;;;;;7.71;79.75;102296.03;6247143;28;20080;-73
2021/03/28 08:28:52;;;;;;;13.00;3.53;;;;;;;7.67;77.18;102302.22;6246504;28;20072;-73
2021/03/28 08:32:10;;;;;;;18.58;3.67;;;;;;;7.66;78.21;102291.78;6221808;28;20079;-73
2021/03/28 08:35:51;;;;;;;17.60;3.03;;;;;;;7.93;76.59;102303.53;6222465;28;20056;-72
2021/03/28 08:39:07;;;;;;;16.35;3.22;;;;;;;7.71;77.84;102296.03;6222333;28;20046;-73
2021/03/28 08:42:30;;;;;;;14.88;3.03;;;;;;;7.74;79.03;102301.25;6240729;28;20053;-74
2021/03/28 08:45:32;;;;;;;13.30;2.90;;;;;;;7.82;76.61;102290.66;6246656;28;20056;-75
2021/03/28 08:48:47;;;;;;;17.45;3.40;;;;;;;7.91;76.97;102303.59;6245012;28;20080;-73
2021/03/28 08:52:27;;;;;;;21.58;3.50;;;;;;;7.84;77.18;102304.56;6245582;28;20112;-73
2021/03/28 08:56:07;;;;;;;13.15;2.90;;;;;;;8.03;77.24;102305.09;6246823;28;20103;-75
2021/03/28 08:59:19;;;;;;;22.83;3.28;;;;;;;8.06;76.46;102305.91;6245995;28;20132;-75
2021/03/28 09:02:36;;;;;;;12.60;2.85;;;;;;;8.25;76.15;102301.22;6244628;28;20426;-75
2021/03/28 09:05:44;;;;;;;25.00;3.70;;;;;;;8.33;75.77;102306.31;6240276;28;20057;-75
2021/03/28 09:08:58;;;;;;;20.40;3.38;;;;;;;8.40;76.55;102302.69;6245085;28;20052;-76
2021/03/28 09:12:13;;;;;;;16.67;3.75;;;;;;;8.62;74.74;102300.53;6245405;28;20103;-74
2021/03/28 09:15:31;;;;;;;18.30;3.33;;;;;;;8.75;74.71;102301.13;6246191;28;20502;-74
2021/03/28 09:18:44;;;;;;;14.65;3.05;;;;;;;8.67;76.05;102280.31;6221971;28;20050;-74
2021/03/28 09:21:57;;;;;;;12.07;2.83;;;;;;;8.62;75.35;102284.78;6244692;28;20060;-76
2021/03/28 09:25:04;;;;;;;12.40;3.28;;;;;;;8.74;75.32;102281.06;6246211;28;20064;-76
2021/03/28 09:28:17;;;;;;;15.02;3.30;;;;;;;8.58;74.98;102278.78;6245747;28;20052;-76
2021/03/28 09:31:28;;;;;;;13.82;2.50;;;;;;;8.69;76.32;102270.69;6245399;28;20053;-76
2021/03/28 09:34:45;;;;;;;10.88;2.78;;;;;;;9.08;73.48;102283.81;6245854;28;20053;-77
2021/03/28 09:37:53;;;;;;;15.48;2.80;;;;;;;8.99;73.72;102277.00;6245491;28;20457;-77
2021/03/28 09:41:05;;;;;;;20.98;3.08;;;;;;;9.25;75.02;102280.81;6245310;28;20521;-77
2021/03/28 09:44:19;;;;;;;10.32;2.90;;;;;;;9.24;73.56;102276.47;6246078;28;20156;-77
2021/03/28 09:47:34;;;;;;;11.20;2.60;;;;;;;9.15;74.89;102274.91;6245775;28;20050;-77
2021/03/28 09:50:54;;;;;;;7.57;2.15;;;;;;;9.13;73.09;102274.97;6245832;28;20502;-76
2021/03/28 09:54:12;;;;;;;12.70;2.65;;;;;;;9.40;74.28;102265.59;6245973;28;20049;-77
2021/03/28 09:58:03;;;;;;;10.43;2.50;;;;;;;9.38;74.03;102262.13;6245095;28;20072;-76
2021/03/28 10:01:20;;;;;;;14.68;2.58;;;;;;;9.59;71.31;102260.75;6172370;28;20105;-77
2021/03/28 10:04:33;;;;;;;17.90;2.83;;;;;;;9.32;74.23;102248.31;6183602;28;20059;-77
2021/03/28 10:07:43;;;;;;;10.68;2.53;;;;;;;9.50;73.11;102250.47;6247549;28;20053;-77
2021/03/28 10:10:59;;;;;;;15.52;2.85;;;;;;;9.60;72.55;102251.09;6247175;28;20049;-76
2021/03/28 10:14:19;;;;;;;15.75;3.08;;;;;;;9.64;72.09;102252.75;6249753;28;20056;-77
2021/03/28 10:17:46;;;;;;;9.25;2.55;;;;;;;10.01;69.90;102233.41;6249571;28;20052;-76
2021/03/28 10:21:11;;;;;;;10.90;2.78;;;;;;;9.99;69.89;102233.47;6249420;28;20141;-76
2021/03/28 10:24:26;;;;;;;9.57;2.35;;;;;;;10.00;69.71;102222.06;6249749;28;20050;-76
2021/03/28 10:27:48;;;;;;;16.20;3.30;;;;;;;9.98;70.57;102218.59;6249880;28;20054;-77
2021/03/28 10:31:00;;;;;;;7.45;2.22;;;;;;;10.13;69.64;102215.56;6248937;28;20056;-77
2021/03/28 10:34:30;;;;;;;9.57;2.55;;;;;;;10.10;70.50;102222.66;6249765;28;20053;-78
2021/03/28 10:37:51;;;;;;;12.52;2.72;;;;;;;10.21;69.54;102224.97;6246549;28;20046;-77
2021/03/28 10:40:57;;;;;;;12.10;2.53;;;;;;;10.10;69.24;102215.63;6247747;28;20053;-76
2021/03/28 10:44:16;;;;;;;9.73;2.20;;;;;;;10.28;69.88;102210.81;6249422;28;20049;-77
2021/03/28 10:48:04;;;;;;;16.20;3.30;;;;;;;10.69;69.67;102217.47;6249156;28;20053;-78
2021/03/28 10:51:43;;;;;;;8.98;2.42;;;;;;;10.90;68.00;102213.31;6248518;28;20046;-78
2021/03/28 10:55:35;;;;;;;14.30;3.05;;;;;;;10.93;68.09;102210.59;6249640;28;20045;-79
2021/03/28 10:59:26;;;;;;;11.90;2.67;;;;;;;11.15;67.37;102209.00;6223445;28;20661;-78
2021/03/28 11:03:06;;;;;;;10.45;2.33;;;;;;;11.46;67.69;102202.72;6248592;28;20487;-79
2021/03/28 11:06:34;;;;;;;13.07;2.60;;;;;;;11.71;67.02;102184.31;6233326;28;20057;-78
2021/03/28 11:10:18;;;;;;;14.45;2.85;;;;;;;11.51;64.67;102206.06;6248592;28;20568;-81
2021/03/28 11:14:07;;;;;;;10.30;2.08;;;;;;;11.78;63.50;102183.19;6248254;28;20053;-77
2021/03/28 11:17:38;;;;;;;9.82;2.10;;;;;;;11.31;64.77;102190.06;6248827;28;20045;-80
2021/03/28 11:20:50;;;;;;;12.43;2.15;;;;;;;11.29;64.66;102205.91;6248590;28;20053;-77
2021/03/28 11:24:19;;;;;;;11.70;2.42;;;;;;;11.31;64.66;102182.16;6248902;28;20049;-79
2021/03/28 11:27:51;;;;;;;16.00;3.08;;;;;;;11.56;64.71;102171.69;6248939;28;20046;-79
2021/03/28 11:30:55;;;;;;;12.57;2.40;;;;;;;11.65;61.99;102174.00;6247545;28;20060;-78
2021/03/28 11:34:01;;;;;;;13.05;2.13;;;;;;;11.84;62.34;102177.72;6248397;28;20046;-79
2021/03/28 11:37:06;;;;;;;6.68;1.92;;;;;;;11.68;62.55;102187.06;6247518;28;20045;-79
2021/03/28 11:40:31;;;;;;;9.52;2.30;;;;;;;11.81;61.73;102169.94;6247977;28;20564;-78
2021/03/28 11:43:37;;;;;;;10.02;2.20;;;;;;;12.05;60.30;102168.19;6222963;28;20057;-78
2021/03/28 11:46:49;;;;;;;11.73;2.67;;;;;;;12.05;60.15;102173.47;6223623;28;20193;-78
2021/03/28 11:50:24;;;;;;;11.73;2.00;;;;;;;11.85;60.63;102171.53;6223413;28;20057;-82
2021/03/28 11:53:34;;;;;;;11.20;2.88;;;;;;;11.79;60.97;102186.69;6222902;28;20072;-79
2021/03/28 11:56:36;;;;;;;;;;;;;;;11.72;61.83;102170.25;6230835;28;20054;-77
2021/03/28 11:59:41;;;;;;;11.10;2.10;;;;;;;11.69;61.83;102163.31;6247048;28;19943;-79
2021/03/28 12:03:26;;;;;;;9.80;2.92;;;;;;;11.68;60.78;102181.81;6247484;28;20103;-79
2021/03/28 12:06:48;;;;;;;15.65;3.00;;;;;;;11.63;60.89;102186.38;6247381;28;20120;-82
2021/03/28 12:09:55;;;;;;;12.13;2.20;;;;;;;11.51;62.74;102182.38;6247989;28;20064;-83
2021/03/28 12:13:26;;;;;;;12.63;2.40;;;;;;;11.55;62.24;102184.00;6247031;28;20120;-78
2021/03/28 12:16:59;;;;;;;11.65;3.28;;;;;;;11.59;63.04;102182.97;6245732;28;20092;-77
2021/03/28 12:20:11;;;;;;;15.93;3.47;;;;;;;11.55;63.25;102184.00;6205808;28;20049;-79
2021/03/28 12:23:23;;;;;;;8.65;2.78;;;;;;;11.71;63.38;102180.81;6246114;28;20053;-79
2021/03/28 12:26:27;;;;;;;15.68;3.55;;;;;;;11.60;62.91;102178.56;6247132;28;20060;-79
2021/03/28 12:29:46;;;;;;;11.35;3.10;;;;;;;11.71;63.55;102173.78;6247008;28;20521;-79
2021/03/28 12:32:59;;;;;;;13.25;2.55;;;;;;;11.77;61.74;102175.34;6246527;28;20108;-78
2021/03/28 12:36:04;;;;;;;8.02;2.85;;;;;;;12.01;59.60;102168.38;6247080;28;20076;-80
2021/03/28 12:39:15;;;;;;;12.48;2.63;;;;;;;12.00;60.45;102162.25;6246751;28;20045;-79
2021/03/28 12:42:25;;;;;;;12.85;2.85;;;;;;;11.80;60.90;102168.19;6246321;28;20520;-78
2021/03/28 12:45:40;;;;;;;10.73;2.80;;;;;;;11.90;59.28;102164.34;6246666;28;20072;-77
2021/03/28 12:48:41;;;;;;;11.05;2.80;;;;;;;11.86;59.21;102167.16;6246703;28;20057;-80
2021/03/28 12:51:45;;;;;;;20.05;3.05;;;;;;;11.74;59.10;102157.88;6246112;28;20053;-79
2021/03/28 12:55:21;;;;;;;10.32;2.83;;;;;;;11.68;59.92;102172.13;6247056;28;20046;-80
2021/03/28 12:58:35;;;;;;;11.50;2.90;;;;;;;11.58;59.31;102157.56;6246074;28;20045;-79
2021/03/28 13:01:36;;;;;;;12.18;2.42;;;;;;;11.68;59.16;102163.38;6245942;28;20049;-80
2021/03/28 13:04:39;;;;;;;8.05;2.22;;;;;;;11.65;59.53;102161.69;6246483;28;20115;-80
2021/03/28 13:07:43;;;;;;;9.73;2.58;;;;;;;11.73;59.25;102160.56;6246938;28;20076;-79
2021/03/28 13:10:46;;;;;;;8.45;2.40;;;;;;;11.66;59.54;102166.03;6245897;28;20064;-81
2021/03/28 13:13:50;;;;;;;10.32;2.50;;;;;;;11.56;60.37;102163.78;6246895;28;20499;-80
2021/03/28 13:16:57;;;;;;;16.27;2.63;;;;;;;11.40;62.79;102181.91;6246420;28;20054;-81
2021/03/28 13:20:22;;;;;;;11.50;2.78;;;;;;;11.25;64.50;102177.97;6246484;28;20048;-78
2021/03/28 13:23:38;;;;;;;9.90;3.05;;;;;;;11.29;62.99;102181.38;6245680;28;20144;-82
2021/03/28 13:27:00;;;;;;;9.98;2.40;;;;;;;11.14;64.07;102173.09;6246459;28;20524;-80
2021/03/28 13:30:06;;;;;;;13.52;2.55;;;;;;;11.05;63.48;102175.16;6246190;28;20049;-79
2021/03/28 13:33:29;;;;;;;9.43;2.33;;;;;;;11.02;64.32;102176.09;6246039;28;20045;-80
2021/03/28 13:36:35;;;;;;;14.57;3.70;;;;;;;11.22;62.57;102185.09;6251020;28;20136;-80
2021/03/28 13:39:41;;;;;;;9.20;2.22;;;;;;;11.25;61.84;102174.50;6250983;28;20046;-78
2021/03/28 13:42:46;;;;;;;12.15;2.67;;;;;;;11.08;61.95;102188.19;6249927;28;20041;-76
2021/03/28 13:45:50;;;;;;;14.18;2.78;;;;;;;10.84;65.19;102214.38;6283551;22;20041;-78
2021/03/28 13:49:02;;;;;;;10.68;2.28;;;;;;;10.71;65.50;102204.28;6274684;28;20059;-81
2021/03/28 13:52:24;;;;;;;13.65;2.80;;;;;;;10.46;67.03;102193.66;6274503;28;20497;-81
2021/03/28 13:55:32;;;;;;;14.27;2.42;;;;;;;10.29;68.50;102202.00;6274905;28;20049;-78
2021/03/28 13:58:37;;;;;;;11.32;2.65;;;;;;;10.05;69.06;102203.53;6275204;28;20052;-82
2021/03/28 14:01:57;;;;;;;16.80;2.80;;;;;;;10.03;68.49;102210.59;6274168;28;20052;-78
2021/03/28 14:05:03;;;;;;;12.52;2.63;;;;;;;10.11;69.96;102209.47;6275069;28;20053;-79
2021/03/28 14:08:05;;;;;;;12.38;2.08;;;;;;;10.22;68.29;102211.81;6275064;28;20052;-80
2021/03/28 14:11:06;;;;;;;8.98;2.50;;;;;;;10.18;67.07;102206.69;6267379;28;20052;-79
2021/03/28 14:14:20;;;;;;;11.90;2.47;;;;;;;10.22;67.25;102219.69;6250553;28;20057;-79
2021/03/28 14:17:25;;;;;;;15.10;2.97;;;;;;;10.08;69.18;102219.19;6250019;28;20533;-80
2021/03/28 14:20:30;;;;;;;12.65;2.15;;;;;;;10.15;67.92;102240.00;6250395;28;20041;-79
2021/03/28 14:23:31;;;;;;;11.45;1.98;;;;;;;10.05;69.34;102228.03;6248435;28;20061;-78
2021/03/28 14:26:39;;;;;;;10.75;2.35;;;;;;;10.07;68.04;102226.22;6250454;28;20513;-78
2021/03/28 14:29:42;;;;;;;11.00;2.25;;;;;;;10.03;69.18;102234.22;6249841;28;20421;-75
2021/03/28 14:32:46;;;;;;;10.70;1.80;;;;;;;10.09;69.86;102229.69;6247626;28;20140;-80
2021/03/28 14:36:03;;;;;;;12.52;2.17;;;;;;;10.09;68.85;102234.06;6249750;28;20049;-78
2021/03/28 14:39:32;;;;;;;9.52;2.10;;;;;;;9.81;72.18;102240.06;6249365;28;20041;-80
2021/03/28 14:42:45;;;;;;;7.90;2.10;;;;;;;9.91;72.04;102223.16;6247879;28;20049;-75
2021/03/28 14:46:09;;;;;;;9.98;2.20;;;;;;;9.82;71.74;102227.81;6248626;28;20049;-75
2021/03/28 14:49:21;;;;;;;17.10;2.65;;;;;;;9.98;71.99;102228.22;6249387;28;20046;-76
2021/03/28 14:52:47;;;;;;;5.45;1.98;;;;;;;9.97;71.78;102230.00;6248214;28;20045;-77
2021/03/28 14:55:58;;;;;;;7.60;2.15;;;;;;;9.97;72.17;102210.75;6232186;28;20049;-77
2021/03/28 14:59:14;;;;;;;10.60;2.47;;;;;;;9.81;74.10;102211.19;6273135;28;20493;-77
2021/03/28 15:02:28;;;;;;;10.90;2.47;;;;;;;9.88;72.68;102202.22;6259815;28;20041;-76
2021/03/28 15:05:54;;;;;;;12.02;2.97;;;;;;;9.96;72.89;102201.16;6248154;28;20049;-77
2021/03/28 15:09:01;;;;;;;6.72;2.15;;;;;;;10.13;72.46;102202.44;6248220;28;20037;-76
2021/03/28 15:12:11;;;;;;;13.45;2.58;;;;;;;10.12;72.51;102195.41;6246501;28;20042;-75
2021/03/28 15:15:25;;;;;;;13.70;2.60;;;;;;;10.06;72.39;102200.88;6248488;28;20041;-76
2021/03/28 15:18:47;;;;;;;10.05;2.38;;;;;;;10.13;71.45;102183.19;6254181;28;20048;-77
2021/03/28 15:22:00;;;;;;;14.93;2.67;;;;;;;10.17;71.15;102190.03;6250944;28;20110;-77
2021/03/28 15:25:07;;;;;;;15.38;2.85;;;;;;;10.19;70.26;102204.00;6255490;28;20045;-76
2021/03/28 15:28:14;;;;;;;10.20;2.25;;;;;;;10.38;69.30;102214.88;6272255;28;20045;-76